Time;durP1;ratioP1;P1;durP2;ratioP2;P2;SDS_P1;SDS_P2;PMS_P1;PMS_P2;Temp;Humidity;BMP_temperature;BMP_pressure;BME280_temperature;BME280_humidity;BME280_pressure;Samples;Min_cycle;Max_cycle;Signal;HPM_P1;HPM_P2
2022/05/26 05:20:36;;;;;;;49.57;38.20;;;;;;;22.28;76.57;99630.38;5909683;23;20225;-61
2022/05/26 05:23:08;;;;;;;51.33;39.80;;;;;;;22.36;76.44;99624.91;5013209;28;20664;-62
2022/05/26 05:25:39;;;;;;;49.60;40.85;;;;;;;22.33;77.19;99635.50;5004461;28;20444;-62
2022/05/26 05:28:11;;;;;;;44.60;38.13;;;;;;;22.44;76.99;99643.03;4993396;28;20199;-61
2022/05/26 05:30:43;;;;;;;48.83;37.13;;;;;;;22.60;76.39;99639.91;5011196;28;20817;-62
2022/05/26 05:33:14;;;;;;;45.47;37.83;;;;;;;22.49;76.60;99639.38;5013165;28;20200;-63
2022/05/26 05:35:47;;;;;;;53.33;39.00;;;;;;;22.62;76.82;99639.84;5013106;28;20221;-61
2022/05/26 05:38:15;;;;;;;50.85;41.80;;;;;;;22.61;76.65;99644.22;5012061;28;20454;-62
2022/05/26 05:40:42;;;;;;;52.72;40.65;;;;;;;22.78;76.55;99641.97;5012197;28;20434;-63
2022/05/26 05:43:09;;;;;;;52.13;38.57;;;;;;;22.98;76.21;99645.75;4993442;28;20296;-62
2022/05/26 05:45:38;;;;;;;46.07;36.97;;;;;;;22.90;75.39;99638.13;4992826;28;20194;-62
2022/05/26 05:48:05;;;;;;;46.60;38.00;;;;;;;23.05;75.30;99652.50;4993135;28;20202;-61
2022/05/26 05:50:32;;;;;;;45.17;36.70;;;;;;;23.05;75.90;99649.88;4993045;28;20190;-62
2022/05/26 05:53:01;;;;;;;51.37;40.67;;;;;;;23.06;76.15;99651.59;4992673;28;20527;-62
2022/05/26 05:55:30;;;;;;;46.90;36.17;;;;;;;23.15;75.86;99657.44;4993491;28;20441;-62
2022/05/26 05:57:56;;;;;;;45.13;35.83;;;;;;;23.26;75.84;99662.31;4992771;28;20554;-62
2022/05/26 06:00:23;;;;;;;45.03;35.23;;;;;;;23.38;75.62;99659.31;4993187;28;20220;-62
2022/05/26 06:02:50;;;;;;;42.60;32.80;;;;;;;23.44;75.17;99656.47;4992995;28;20585;-62
2022/05/26 06:05:17;;;;;;;40.30;31.67;;;;;;;23.60;73.89;99665.56;4993237;28;20222;-62
2022/05/26 06:07:44;;;;;;;39.63;33.65;;;;;;;23.75;73.38;99670.28;4991984;28;20977;-62
2022/05/26 06:10:14;;;;;;;35.67;28.73;;;;;;;23.95;71.79;99659.94;4992151;28;20182;-63
2022/05/26 06:12:41;;;;;;;29.83;24.00;;;;;;;23.99;69.06;99656.31;4993053;28;20194;-62
2022/05/26 06:15:09;;;;;;;32.93;24.53;;;;;;;24.07;68.87;99654.25;4992685;28;20672;-62
2022/05/26 06:17:36;;;;;;;31.37;25.97;;;;;;;24.17;69.01;99659.22;4992809;28;20732;-62
2022/05/26 06:20:03;;;;;;;34.67;26.57;;;;;;;24.23;68.75;99659.84;4992398;28;20222;-61
2022/05/26 06:22:30;;;;;;;34.80;27.02;;;;;;;24.33;67.72;99660.38;4991575;28;20459;-62
2022/05/26 06:24:57;;;;;;;33.65;24.88;;;;;;;24.55;67.57;99654.25;4992114;28;20506;-62
2022/05/26 06:30:12;;;;;;;27.97;22.10;;;;;;;24.87;65.75;99655.66;4992614;28;20190;-62
2022/05/26 06:38:13;;;;;;;29.80;22.03;;;;;;;25.10;63.93;99621.44;4991606;28;20492;-62
2022/05/26 06:40:40;;;;;;;26.60;20.65;;;;;;;25.42;62.82;99640.28;4992697;28;20190;-62
2022/05/26 06:43:08;;;;;;;30.13;21.40;;;;;;;25.65;62.26;99648.09;4992277;28;20773;-62
2022/05/26 06:45:36;;;;;;;31.47;20.47;;;;;;;25.79;62.50;99646.56;4992106;28;20205;-62
2022/05/26 06:48:03;;;;;;;32.60;21.10;;;;;;;25.90;61.92;99632.97;4992095;28;20209;-62
2022/05/26 06:50:30;;;;;;;28.37;19.13;;;;;;;25.89;60.10;99633.88;4991943;28;20655;-62
2022/05/26 06:52:57;;;;;;;20.30;18.02;;;;;;;25.96;60.28;99637.09;4991652;28;20554;-55
2022/05/26 06:55:24;;;;;;;23.67;17.50;;;;;;;26.11;59.83;99639.03;4991889;28;20199;-55
2022/05/26 06:57:51;;;;;;;25.40;19.63;;;;;;;26.19;59.00;99631.69;4988784;28;20459;-55
2022/05/26 07:00:20;;;;;;;19.80;16.60;;;;;;;26.43;58.43;99629.69;4990529;28;20693;-55
2022/05/26 07:02:47;;;;;;;22.27;16.10;;;;;;;26.62;57.35;99633.19;4990535;28;20186;-55
2022/05/26 07:05:15;;;;;;;22.42;16.27;;;;;;;26.74;57.04;99630.00;4988364;28;20206;-55
2022/05/26 07:07:42;;;;;;;22.35;14.30;;;;;;;26.86;55.33;99645.28;4991263;28;20673;-56
2022/05/26 07:10:12;;;;;;;20.73;15.18;;;;;;;26.97;55.83;99635.06;4990826;28;20511;-55
2022/05/26 07:12:38;;;;;;;17.20;13.25;;;;;;;27.18;54.42;99644.56;4991554;28;20194;-55
2022/05/26 07:15:08;;;;;;;23.48;13.07;;;;;;;27.28;53.25;99645.81;4991348;28;20201;-56
2022/05/26 07:17:37;;;;;;;19.00;13.20;;;;;;;27.31;53.26;99637.75;4990947;28;20190;-55
2022/05/26 07:20:05;;;;;;;19.00;11.70;;;;;;;27.48;52.18;99651.00;4990985;28;20213;-56
2022/05/26 07:22:32;;;;;;;20.20;11.23;;;;;;;27.60;51.20;99649.53;4990045;28;20222;-56
2022/05/26 07:24:59;;;;;;;13.95;9.90;;;;;;;27.69;50.01;99650.84;4989219;28;20206;-55
2022/05/26 07:27:26;;;;;;;14.05;9.88;;;;;;;27.78;49.32;99651.22;4990635;28;20224;-55
2022/05/26 07:29:53;;;;;;;16.45;10.63;;;;;;;27.87;48.58;99639.31;4989885;28;20950;-55
2022/05/26 07:32:20;;;;;;;16.52;9.13;;;;;;;28.08;47.50;99648.78;4991019;28;20214;-55
2022/05/26 07:34:48;;;;;;;13.73;10.05;;;;;;;28.17;47.02;99652.75;4990748;28;20237;-55
2022/05/26 07:42:43;;;;;;;20.30;11.48;;;;;;;28.24;46.95;99656.78;4989619;28;20795;-55
2022/05/26 07:45:11;;;;;;;19.33;11.18;;;;;;;28.43;46.86;99665.44;4990801;28;20190;-55
2022/05/26 07:47:38;;;;;;;18.17;10.60;;;;;;;28.55;47.60;99656.81;4989599;28;20661;-56
2022/05/26 07:50:11;;;;;;;18.45;10.43;;;;;;;28.59;46.53;99659.22;4988637;28;20260;-56
2022/05/26 07:52:38;;;;;;;17.13;9.82;;;;;;;28.70;45.80;99658.66;4988895;28;20194;-56
2022/05/26 07:55:06;;;;;;;17.90;10.38;;;;;;;28.75;46.01;99661.91;4989723;28;20595;-55
2022/05/26 07:57:32;;;;;;;19.05;10.38;;;;;;;28.79;44.23;99662.59;4989570;28;20692;-55
2022/05/26 07:59:59;;;;;;;21.30;10.77;;;;;;;28.73;43.71;99673.50;4989712;28;20582;-55
2022/05/26 08:02:27;;;;;;;16.77;10.10;;;;;;;28.75;42.93;99667.19;4988910;28;20440;-56
2022/05/26 08:04:54;;;;;;;19.30;10.13;;;;;;;28.92;42.91;99672.41;4990075;28;20606;-55
2022/05/26 08:07:22;;;;;;;15.05;9.52;;;;;;;29.00;43.08;99669.31;4990289;28;20652;-56
2022/05/26 08:09:50;;;;;;;15.60;8.85;;;;;;;29.02;40.56;99676.25;4989880;28;20194;-56
2022/05/26 08:12:17;;;;;;;13.52;8.50;;;;;;;29.04;41.29;99660.25;4989929;28;20280;-56
2022/05/26 08:14:45;;;;;;;14.77;8.75;;;;;;;29.20;41.70;99674.31;4990073;28;20193;-63
2022/05/26 08:17:13;;;;;;;14.05;9.07;;;;;;;29.23;39.78;99684.78;4989783;28;20198;-63
2022/05/26 08:19:40;;;;;;;19.13;9.10;;;;;;;29.27;39.50;99686.31;4990468;28;20868;-62
2022/05/26 08:22:07;;;;;;;13.57;9.27;;;;;;;29.50;39.74;99677.06;4990200;28;20236;-63
2022/05/26 08:24:35;;;;;;;14.10;8.68;;;;;;;29.62;38.70;99685.13;4990693;28;20270;-64
2022/05/26 08:27:02;;;;;;;18.00;8.60;;;;;;;29.83;38.15;99686.53;4989951;28;20213;-63
2022/05/26 08:29:29;;;;;;;14.05;8.77;;;;;;;29.83;38.44;99692.81;4989798;28;20754;-62
2022/05/26 08:31:56;;;;;;;12.23;8.48;;;;;;;29.83;38.14;99686.53;4990567;28;20241;-63
2022/05/26 08:34:23;;;;;;;23.85;9.18;;;;;;;30.00;38.57;99685.53;4993008;28;20447;-63
2022/05/26 08:36:49;;;;;;;13.70;8.90;;;;;;;30.24;38.11;99686.69;4994113;28;20301;-63
2022/05/26 08:39:17;;;;;;;20.33;8.55;;;;;;;30.21;36.55;99694.00;4994008;28;20222;-62
2022/05/26 08:41:48;;;;;;;13.02;8.93;;;;;;;30.21;37.04;99694.84;4994692;28;20212;-62
2022/05/26 08:44:27;;;;;;;13.88;8.45;;;;;;;30.31;36.65;99687.16;4993877;28;20358;-62
2022/05/26 08:47:01;;;;;;;14.20;7.88;;;;;;;30.38;36.54;99686.72;4993803;28;20280;-61
2022/05/26 08:49:35;;;;;;;15.13;7.90;;;;;;;30.56;36.45;99692.69;4994133;28;20190;-61
2022/05/26 08:52:07;;;;;;;12.00;7.32;;;;;;;30.63;35.63;99683.41;4993845;28;20200;-62
2022/05/26 08:54:39;;;;;;;16.27;7.35;;;;;;;30.65;35.97;99681.53;4993990;28;20197;-63
2022/05/26 08:57:13;;;;;;;15.90;8.27;;;;;;;30.81;36.22;99686.69;4993688;28;20195;-61
2022/05/26 08:59:44;;;;;;;16.67;8.52;;;;;;;30.79;35.96;99686.78;4993778;28;20221;-62
2022/05/26 09:02:25;;;;;;;13.85;7.80;;;;;;;30.74;34.79;99691.53;4993712;28;20201;-62
2022/05/26 09:04:55;;;;;;;13.30;7.38;;;;;;;30.65;35.81;99676.22;4993589;28;20194;-61
2022/05/26 09:13:06;;;;;;;15.32;7.57;;;;;;;30.72;35.91;99693.44;4993148;28;20251;-62
2022/05/26 09:15:36;;;;;;;10.23;6.78;;;;;;;30.76;35.56;99694.97;4992922;28;20202;-62
2022/05/26 09:18:11;;;;;;;15.43;8.07;;;;;;;30.88;34.86;99690.66;4992404;28;20444;-63
2022/05/26 09:20:41;;;;;;;16.35;7.32;;;;;;;30.84;35.37;99683.84;4992598;28;20237;-61
2022/05/26 09:23:15;;;;;;;15.38;8.30;;;;;;;30.65;34.79;99680.66;4992949;28;20261;-62
2022/05/26 09:25:46;;;;;;;16.48;7.90;;;;;;;30.62;35.49;99678.19;4992853;28;20273;-62
2022/05/26 09:28:27;;;;;;;16.20;8.48;;;;;;;30.77;35.17;99667.47;4992747;28;20190;-62
2022/05/26 09:30:54;;;;;;;13.93;7.10;;;;;;;30.86;35.58;99669.53;4992861;28;20696;-62
2022/05/26 09:33:29;;;;;;;13.50;7.97;;;;;;;30.95;35.96;99668.13;4992703;28;20276;-62
2022/05/26 09:36:15;;;;;;;14.65;7.35;;;;;;;30.86;33.75;99672.19;4992578;28;20202;-63
2022/05/26 09:38:43;;;;;;;15.40;6.93;;;;;;;30.95;32.30;99674.28;4991048;28;20452;-62
2022/05/26 09:41:16;;;;;;;8.27;4.93;;;;;;;31.14;30.09;99684.56;4992543;28;20317;-63
2022/05/26 09:43:49;;;;;;;7.97;4.88;;;;;;;31.24;29.46;99671.53;4992006;28;20241;-62
2022/05/26 09:46:17;;;;;;;12.77;5.70;;;;;;;31.38;30.17;99671.47;4992905;28;20198;-62
2022/05/26 09:48:46;;;;;;;10.40;5.38;;;;;;;31.37;27.98;99681.25;4992403;28;20561;-62
2022/05/26 09:51:24;;;;;;;9.48;5.57;;;;;;;31.23;28.46;99656.56;4992248;28;20199;-63
2022/05/26 09:53:52;;;;;;;10.20;5.47;;;;;;;31.30;28.56;99664.03;4992871;28;20276;-63
2022/05/26 09:56:29;;;;;;;10.07;5.60;;;;;;;31.37;28.43;99675.94;4992334;28;20194;-63
2022/05/26 09:58:58;;;;;;;14.10;5.72;;;;;;;31.34;29.50;99680.63;4992397;28;20203;-62
2022/05/26 10:01:43;;;;;;;10.05;5.13;;;;;;;31.42;29.12;99679.16;4992024;28;20225;-62
2022/05/26 10:04:21;;;;;;;7.60;5.07;;;;;;;31.53;29.67;99678.47;4992601;28;20198;-62
2022/05/26 10:06:55;;;;;;;12.10;5.70;;;;;;;31.69;30.25;99667.66;4992489;28;20724;-63
2022/05/26 10:09:32;;;;;;;9.57;6.45;;;;;;;31.67;29.89;99662.47;4991843;28;20447;-62
2022/05/26 10:12:13;;;;;;;9.65;5.75;;;;;;;31.83;29.76;99664.91;4991593;28;20198;-62
2022/05/26 10:14:56;;;;;;;13.38;5.50;;;;;;;31.93;28.97;99660.66;4992021;28;20201;-62
2022/05/26 10:17:38;;;;;;;12.70;5.63;;;;;;;31.94;28.55;99671.22;4991686;28;20204;-62
2022/05/26 10:20:18;;;;;;;10.05;6.20;;;;;;;31.89;28.68;99670.66;4991896;28;20230;-60
2022/05/26 10:22:52;;;;;;;18.55;6.40;;;;;;;32.00;28.94;99676.09;4991954;28;20209;-62
2022/05/26 10:25:26;;;;;;;14.98;6.35;;;;;;;32.08;29.89;99663.13;4991861;28;20744;-62
2022/05/26 10:28:13;;;;;;;19.80;5.82;;;;;;;32.24;29.16;99672.72;4991029;28;20265;-62
2022/05/26 10:30:51;;;;;;;19.50;6.75;;;;;;;32.24;29.34;99660.28;4991498;28;20193;-56
2022/05/26 10:33:30;;;;;;;9.48;6.00;;;;;;;32.24;29.91;99662.94;4991711;28;20194;-55
2022/05/26 10:36:12;;;;;;;10.60;5.90;;;;;;;32.20;29.70;99652.59;4991391;28;20206;-56
2022/05/26 10:38:57;;;;;;;12.90;6.72;;;;;;;32.30;29.27;99657.19;4991152;28;20194;-56
2022/05/26 10:41:31;;;;;;;15.52;6.13;;;;;;;32.25;28.53;99656.63;4992620;28;20208;-55
2022/05/26 10:44:06;;;;;;;12.68;6.55;;;;;;;32.30;28.87;99645.69;4990373;28;20973;-55
2022/05/26 10:46:39;;;;;;;14.13;6.05;;;;;;;32.47;28.51;99634.72;4991551;28;20202;-55
2022/05/26 10:49:14;;;;;;;10.68;5.65;;;;;;;32.40;29.42;99631.63;4991736;28;20206;-55
2022/05/26 10:51:44;;;;;;;9.30;6.70;;;;;;;32.47;29.45;99627.56;4991031;28;20190;-55
2022/05/26 10:54:16;;;;;;;11.30;6.25;;;;;;;32.53;29.84;99631.59;4991448;28;20447;-55
2022/05/26 10:56:49;;;;;;;14.20;7.07;;;;;;;32.48;29.96;99626.63;4990917;28;20198;-56
2022/05/26 10:59:21;;;;;;;13.50;6.82;;;;;;;32.51;30.65;99625.53;4991994;28;20636;-55
2022/05/26 11:01:55;;;;;;;11.45;6.30;;;;;;;32.65;30.27;99630.75;4991734;28;20209;-55
2022/05/26 11:04:31;;;;;;;14.77;6.32;;;;;;;32.70;29.66;99631.28;4991656;28;20597;-55
2022/05/26 11:07:17;;;;;;;13.35;6.22;;;;;;;32.69;29.19;99637.53;4991790;28;20209;-55
2022/05/26 11:09:52;;;;;;;13.55;6.22;;;;;;;32.54;28.94;99604.94;4991151;28;20190;-55
2022/05/26 11:12:31;;;;;;;14.35;6.07;;;;;;;32.82;28.17;99617.09;4991130;28;20190;-56
2022/05/26 11:17:54;;;;;;;12.70;6.53;;;;;;;33.14;28.27;99614.72;4991379;28;20280;-55
2022/05/26 11:20:23;;;;;;;12.52;6.95;;;;;;;33.20;28.68;99628.44;4990927;28;20280;-55
2022/05/26 11:22:51;;;;;;;9.40;6.15;;;;;;;33.16;28.08;99634.94;4991523;28;20198;-55
2022/05/26 11:25:25;;;;;;;9.30;6.35;;;;;;;33.18;27.74;99630.34;4990887;28;20201;-55
2022/05/26 11:27:57;;;;;;;10.80;6.03;;;;;;;33.17;27.75;99628.66;4991104;28;20194;-58
2022/05/26 11:36:15;;;;;;;7.80;6.20;;;;;;;33.32;28.10;99621.31;4990940;28;20330;-56
2022/05/26 11:38:45;;;;;;;11.38;5.80;;;;;;;33.39;28.25;99603.06;4990824;28;20228;-56
2022/05/26 11:41:23;;;;;;;7.80;5.45;;;;;;;33.46;27.20;99610.47;4990987;28;20605;-56
2022/05/26 11:44:01;;;;;;;7.80;5.65;;;;;;;33.56;27.47;99605.31;4990561;28;20198;-55
2022/05/26 11:46:48;;;;;;;14.60;5.80;;;;;;;33.69;26.94;99614.09;4990755;28;20266;-56
2022/05/26 11:49:48;;;;;;;8.40;5.35;;;;;;;33.60;27.45;99589.00;4990699;28;20198;-60
2022/05/26 11:52:24;;;;;;;12.77;5.82;;;;;;;33.68;27.50;99601.72;4990587;28;20202;-55
2022/05/26 11:55:11;;;;;;;11.30;6.28;;;;;;;33.68;27.19;99591.91;4990819;28;20197;-55
2022/05/26 11:57:53;;;;;;;13.48;8.75;;;;;;;33.56;26.67;99602.66;4990648;28;20688;-55
2022/05/26 12:00:23;;;;;;;8.15;5.72;;;;;;;33.37;26.75;99586.38;4989891;28;20455;-55
2022/05/26 12:02:52;;;;;;;17.00;5.47;;;;;;;33.35;27.31;99580.31;4990475;28;20231;-55
2022/05/26 12:05:48;;;;;;;9.98;5.25;;;;;;;33.49;26.88;99582.75;4990286;28;20190;-55
2022/05/26 12:08:40;;;;;;;10.77;5.63;;;;;;;33.71;26.86;99572.16;4990507;28;20298;-55
2022/05/26 12:11:10;;;;;;;8.50;4.93;;;;;;;33.69;25.59;99561.63;4990470;28;20277;-55
2022/05/26 12:13:40;;;;;;;9.98;6.25;;;;;;;33.66;26.99;99563.69;4990023;28;20687;-55
2022/05/26 12:16:24;;;;;;;8.93;5.63;;;;;;;33.72;26.47;99561.41;4990268;28;20209;-56
2022/05/26 12:18:54;;;;;;;8.30;6.20;;;;;;;33.54;26.80;99517.47;4987742;28;20190;-56
2022/05/26 12:21:41;;;;;;;11.00;6.00;;;;;;;33.60;27.32;99556.16;4989301;28;20467;-56
2022/05/26 12:24:45;;;;;;;10.65;5.65;;;;;;;33.56;27.51;99560.00;4990234;28;20201;-57
2022/05/26 12:27:14;;;;;;;10.73;5.68;;;;;;;33.71;28.04;99556.16;4990143;28;20744;-56
2022/05/26 12:30:01;;;;;;;8.60;5.40;;;;;;;33.81;25.99;99555.34;4990256;28;20280;-55
2022/05/26 12:32:32;;;;;;;10.45;6.22;;;;;;;33.97;26.44;99556.81;4990406;28;20452;-55
2022/05/26 12:35:09;;;;;;;10.98;5.00;;;;;;;33.83;27.00;99555.22;4990116;28;20202;-54
2022/05/26 12:37:49;;;;;;;7.88;5.15;;;;;;;33.86;26.81;99549.66;4990257;28;20253;-55
2022/05/26 12:40:35;;;;;;;7.82;4.65;;;;;;;33.89;26.69;99559.22;4990298;28;20229;-55
2022/05/26 12:43:37;;;;;;;8.05;5.53;;;;;;;34.10;26.79;99561.06;4990152;28;20618;-55
2022/05/26 12:46:25;;;;;;;11.85;5.45;;;;;;;34.19;26.33;99560.34;4989866;28;20193;-55
2022/05/26 12:49:05;;;;;;;7.75;5.18;;;;;;;34.16;26.52;99557.94;4990216;28;20221;-55
2022/05/26 12:51:37;;;;;;;9.65;5.55;;;;;;;34.11;25.97;99557.44;4989872;28;20763;-56
2022/05/26 12:54:08;;;;;;;10.68;5.53;;;;;;;34.15;26.03;99553.53;4989420;28;20814;-56
2022/05/26 12:56:46;;;;;;;10.43;5.57;;;;;;;34.45;26.25;99557.41;4989897;28;20202;-55
2022/05/26 12:59:22;;;;;;;8.02;5.05;;;;;;;34.47;25.53;99569.66;4989906;28;20280;-55
2022/05/26 13:01:49;;;;;;;14.23;6.70;;;;;;;34.72;26.65;99571.22;4989775;28;20222;-55
2022/05/26 13:04:21;;;;;;;9.15;5.30;;;;;;;34.58;26.37;99572.34;4995728;28;20625;-55
2022/05/26 13:06:52;;;;;;;14.77;5.35;;;;;;;34.25;26.82;99573.22;5004436;28;20278;-55
2022/05/26 13:09:21;;;;;;;10.15;5.65;;;;;;;34.19;26.91;99576.34;5005873;28;20691;-55
2022/05/26 13:11:52;;;;;;;13.15;6.57;;;;;;;34.28;27.19;99583.59;5009712;28;20190;-55
2022/05/26 13:14:37;;;;;;;8.85;5.53;;;;;;;34.39;27.36;99582.78;5009802;28;20197;-55
2022/05/26 13:17:11;;;;;;;8.75;5.60;;;;;;;34.31;27.43;99572.69;5009538;28;20205;-56
2022/05/26 13:19:42;;;;;;;8.80;6.40;;;;;;;34.47;27.50;99574.13;5011374;28;20442;-56
2022/05/26 13:22:14;;;;;;;11.57;6.32;;;;;;;34.61;27.22;99560.56;5012079;28;20459;-57
2022/05/26 13:24:51;;;;;;;12.73;6.13;;;;;;;34.81;26.78;99568.63;5013046;28;20190;-57
2022/05/26 13:27:18;;;;;;;12.45;6.28;;;;;;;35.00;26.31;99583.97;5009976;28;20558;-57
2022/05/26 13:29:50;;;;;;;10.90;5.50;;;;;;;34.76;26.57;99567.28;4993792;28;21013;-63
2022/05/26 13:35:15;;;;;;;11.10;5.90;;;;;;;34.95;25.87;99567.47;4993640;28;20193;-64
2022/05/26 13:37:43;;;;;;;8.30;5.63;;;;;;;34.86;26.70;99568.25;4993535;28;20213;-64
2022/05/26 13:40:13;;;;;;;9.05;6.55;;;;;;;34.85;26.83;99569.22;4993242;28;20249;-64
2022/05/26 13:42:43;;;;;;;6.50;5.38;;;;;;;34.76;26.44;99569.97;4993258;28;20194;-64
2022/05/26 13:45:19;;;;;;;9.02;5.47;;;;;;;34.74;26.67;99578.13;4991446;28;20226;-62
2022/05/26 13:47:46;;;;;;;9.65;5.78;;;;;;;34.10;28.32;99566.41;4982270;28;20206;-63
2022/05/26 13:50:13;;;;;;;12.10;6.85;;;;;;;33.43;31.01;99567.25;4973656;28;20198;-62
2022/05/26 13:52:42;;;;;;;13.60;7.28;;;;;;;33.32;31.97;99573.38;4981285;28;20320;-63
2022/05/26 13:55:19;;;;;;;13.85;6.43;;;;;;;33.34;32.53;99575.94;4992410;28;20221;-63
2022/05/26 13:57:49;;;;;;;9.05;6.32;;;;;;;32.94;33.58;99576.22;4992519;28;20320;-62
2022/05/26 14:00:24;;;;;;;10.00;6.20;;;;;;;32.70;34.17;99575.38;4992726;28;20206;-62
2022/05/26 14:02:54;;;;;;;9.43;6.50;;;;;;;32.51;34.52;99569.66;4989547;28;20911;-62
2022/05/26 14:05:23;;;;;;;12.87;6.80;;;;;;;32.30;34.65;99565.91;4981283;28;20450;-62
2022/05/26 14:08:03;;;;;;;17.70;7.18;;;;;;;32.22;34.22;99565.59;4973235;28;20199;-62
2022/05/26 14:10:32;;;;;;;15.60;6.88;;;;;;;31.81;34.00;99577.28;4973273;28;20669;-62
2022/05/26 14:13:05;;;;;;;11.23;6.50;;;;;;;31.69;34.40;99569.34;4975588;28;20213;-63
2022/05/26 14:15:48;;;;;;;10.77;6.50;;;;;;;31.51;35.36;99555.50;4992731;28;20209;-62
2022/05/26 14:18:34;;;;;;;14.30;6.35;;;;;;;31.50;35.77;99552.03;4992358;28;20693;-62
2022/05/26 14:21:05;;;;;;;10.27;6.75;;;;;;;31.61;35.78;99550.41;4988303;28;20573;-62
2022/05/26 14:23:34;;;;;;;8.60;6.10;;;;;;;31.52;35.80;99554.56;4992118;28;20222;-62
2022/05/26 14:26:04;;;;;;;7.63;5.70;;;;;;;31.40;36.08;99552.69;4991742;28;20562;-61
2022/05/26 14:28:34;;;;;;;13.75;6.60;;;;;;;31.15;36.33;99496.91;4989235;28;20186;-62
2022/05/26 14:31:03;;;;;;;10.68;6.45;;;;;;;31.48;36.28;99545.94;4988626;28;20228;-62
2022/05/26 14:33:33;;;;;;;8.25;6.95;;;;;;;31.59;36.22;99547.03;4991782;28;20636;-63
2022/05/26 14:36:01;;;;;;;7.75;6.47;;;;;;;31.64;35.85;99547.56;4988590;28;20189;-62
2022/05/26 14:38:27;;;;;;;9.63;6.75;;;;;;;31.80;35.79;99556.16;4990951;28;21000;-63
2022/05/26 14:40:54;;;;;;;7.18;6.47;;;;;;;31.81;36.04;99558.69;4991652;28;20305;-62
2022/05/26 14:43:25;;;;;;;10.18;6.43;;;;;;;31.98;36.17;99560.16;4991554;28;20194;-62
2022/05/26 14:45:53;;;;;;;9.10;6.90;;;;;;;32.25;36.21;99576.03;4991493;28;20672;-55
2022/05/26 14:48:21;;;;;;;7.65;6.65;;;;;;;32.14;35.65;99567.97;4988803;28;20209;-56
2022/05/26 14:50:49;;;;;;;9.85;6.90;;;;;;;32.16;35.87;99566.03;4991823;28;20195;-56
2022/05/26 14:55:26;;;;;;;9.70;6.15;;;;;;;32.14;35.57;99565.31;4991538;28;20226;-56
2022/05/26 14:56:02;;;;;;;10.20;6.47;;;;;;;32.00;35.88;99569.75;4989964;28;20264;-56
2022/05/26 14:58:29;;;;;;;11.73;7.30;;;;;;;31.98;35.65;99565.47;4990839;28;20221;-56
2022/05/26 15:00:57;;;;;;;7.30;6.25;;;;;;;32.01;35.38;99555.53;4988520;28;20316;-57
2022/05/26 15:03:26;;;;;;;8.70;5.97;;;;;;;31.96;35.52;99557.63;4990760;28;20191;-57
2022/05/26 15:05:53;;;;;;;9.68;6.28;;;;;;;31.99;35.41;99552.09;4990743;28;20196;-56
2022/05/26 15:08:41;;;;;;;9.00;6.07;;;;;;;31.80;35.86;99562.31;4990502;28;20669;-56
2022/05/26 15:11:08;;;;;;;9.68;6.68;;;;;;;31.77;35.59;99556.38;4989886;28;20743;-56
2022/05/26 15:13:35;;;;;;;14.15;6.90;;;;;;;31.50;36.44;99557.34;4988573;28;20217;-56
2022/05/26 15:16:03;;;;;;;7.45;6.68;;;;;;;31.48;36.58;99558.41;4990366;28;20189;-56
2022/05/26 15:18:31;;;;;;;7.70;6.45;;;;;;;31.50;36.69;99564.44;4990228;28;20279;-57
2022/05/26 15:20:58;;;;;;;7.95;6.35;;;;;;;31.70;36.62;99569.22;4990308;28;20241;-57
2022/05/26 15:23:25;;;;;;;11.10;6.60;;;;;;;31.63;37.09;99570.59;4991024;28;20198;-56
2022/05/26 15:26:12;;;;;;;10.95;6.65;;;;;;;31.44;37.39;99576.31;4990222;28;20198;-56
2022/05/26 15:28:41;;;;;;;7.85;6.40;;;;;;;31.35;37.66;99571.59;4990313;28;20233;-57
2022/05/26 15:31:08;;;;;;;10.80;6.85;;;;;;;31.25;38.36;99567.03;4990157;28;20245;-56
2022/05/26 15:33:36;;;;;;;7.05;5.85;;;;;;;31.08;38.58;99580.56;4990388;28;20194;-56
2022/05/26 15:36:04;;;;;;;10.23;6.38;;;;;;;31.13;38.32;99578.44;4990438;28;20669;-56
2022/05/26 15:38:35;;;;;;;9.98;6.63;;;;;;;31.32;38.19;99573.59;4990785;28;20604;-56
2022/05/26 15:41:02;;;;;;;7.05;6.35;;;;;;;31.27;37.50;99578.38;4990202;28;20201;-56
2022/05/26 15:43:29;;;;;;;7.72;6.18;;;;;;;31.14;37.49;99574.84;4990498;28;20665;-56
2022/05/26 15:45:56;;;;;;;10.55;6.55;;;;;;;31.10;37.40;99582.16;4990074;28;20448;-56
2022/05/26 15:48:24;;;;;;;9.75;5.90;;;;;;;31.08;37.64;99576.13;4990628;28;20194;-62
2022/05/26 15:50:52;;;;;;;9.85;6.60;;;;;;;31.30;37.98;99586.16;4991014;28;20617;-62
2022/05/26 15:53:19;;;;;;;8.88;7.13;;;;;;;31.28;38.00;99582.75;4990715;28;20198;-63
2022/05/26 15:55:46;;;;;;;9.00;6.35;;;;;;;31.38;37.36;99586.47;4990598;28;20202;-63
2022/05/26 15:58:17;;;;;;;10.93;7.45;;;;;;;31.37;37.59;99588.28;4990445;28;20206;-63
2022/05/26 16:00:44;;;;;;;9.35;6.60;;;;;;;31.42;37.68;99588.84;4989712;28;20459;-62
2022/05/26 16:03:14;;;;;;;7.25;6.55;;;;;;;31.40;37.87;99590.72;4990909;28;20225;-64
2022/05/26 16:05:41;;;;;;;13.02;6.85;;;;;;;31.41;38.10;99597.75;4990739;28;20205;-62
2022/05/26 16:08:10;;;;;;;7.90;6.13;;;;;;;31.37;38.12;99592.78;4990132;28;20195;-62
2022/05/26 16:10:37;;;;;;;8.52;6.72;;;;;;;31.15;38.71;99611.09;4990592;28;20201;-63
2022/05/26 16:13:04;;;;;;;11.98;6.68;;;;;;;31.03;38.57;99603.91;4990858;28;20217;-63
2022/05/26 16:15:31;;;;;;;9.95;6.80;;;;;;;30.98;38.69;99612.19;4990100;28;20475;-62
2022/05/26 16:17:58;;;;;;;7.45;6.30;;;;;;;30.96;39.38;99606.13;4990340;28;20252;-61
2022/05/26 16:20:25;;;;;;;6.82;5.57;;;;;;;31.04;38.53;99610.94;4990490;28;20201;-61
2022/05/26 16:22:53;;;;;;;7.72;6.63;;;;;;;30.91;38.37;99609.03;4990608;28;20608;-61
2022/05/26 16:25:23;;;;;;;8.75;6.53;;;;;;;30.89;37.88;99605.66;4990082;28;20194;-62
2022/05/26 16:27:50;;;;;;;9.02;6.30;;;;;;;30.79;38.26;99609.00;4990748;28;20534;-63
2022/05/26 16:30:20;;;;;;;10.82;7.05;;;;;;;30.85;38.47;99621.84;4990234;28;20194;-63
2022/05/26 16:32:47;;;;;;;11.15;6.25;;;;;;;30.90;38.40;99625.91;4990348;28;20194;-64
2022/05/26 16:38:01;;;;;;;9.55;6.13;;;;;;;30.84;39.03;99633.44;4990316;28;20594;-63
2022/05/26 16:40:32;;;;;;;11.27;7.00;;;;;;;30.80;38.88;99635.44;4990284;28;20251;-62
2022/05/26 16:42:59;;;;;;;8.18;6.40;;;;;;;30.70;38.93;99638.78;4990082;28;20262;-62
2022/05/26 16:45:26;;;;;;;11.30;7.00;;;;;;;30.61;39.81;99640.22;4989972;28;20832;-63
2022/05/26 16:47:53;;;;;;;15.63;7.40;;;;;;;30.66;39.50;99637.25;4990171;28;20205;-55
2022/05/26 16:50:22;;;;;;;9.25;6.60;;;;;;;30.55;39.85;99637.94;4989947;28;20205;-56
2022/05/26 16:52:50;;;;;;;13.57;7.03;;;;;;;30.35;39.87;99633.84;4990252;28;20661;-56
2022/05/26 16:55:19;;;;;;;10.10;6.65;;;;;;;30.17;40.18;99636.78;4993907;28;20202;-56
2022/05/26 16:57:47;;;;;;;7.93;6.30;;;;;;;30.06;40.70;99634.81;4993605;28;20198;-56
2022/05/26 17:00:15;;;;;;;13.23;7.18;;;;;;;30.01;41.29;99638.69;4993916;28;20233;-56
2022/05/26 17:02:42;;;;;;;6.78;5.93;;;;;;;29.89;41.47;99648.22;4993620;28;20228;-55
2022/05/26 17:05:09;;;;;;;8.10;6.70;;;;;;;29.75;42.12;99633.13;4993366;28;20216;-58
2022/05/26 17:07:38;;;;;;;7.93;6.60;;;;;;;29.72;41.53;99643.91;4993850;28;20195;-55
2022/05/26 17:10:08;;;;;;;11.98;7.30;;;;;;;29.78;41.45;99645.34;4992936;28;20455;-56
2022/05/26 17:21:01;;;;;;;12.43;7.07;;;;;;;29.46;41.75;99660.50;4992413;28;20617;-56
2022/05/26 17:23:32;;;;;;;13.93;8.38;;;;;;;29.46;42.26;99659.63;4993107;28;20340;-55
2022/05/26 17:25:59;;;;;;;11.65;8.35;;;;;;;29.40;41.98;99660.84;4992445;28;20831;-55
2022/05/26 17:28:27;;;;;;;12.27;7.28;;;;;;;29.35;42.20;99668.19;4993235;28;20209;-55
2022/05/26 17:30:55;;;;;;;9.07;7.90;;;;;;;29.33;42.16;99669.25;4993120;28;20260;-55
2022/05/26 17:33:23;;;;;;;8.52;7.47;;;;;;;29.24;42.48;99657.38;4992657;28;20191;-55
2022/05/26 17:35:50;;;;;;;11.18;7.68;;;;;;;29.18;42.86;99670.91;4992968;28;20198;-55
2022/05/26 17:38:17;;;;;;;10.82;8.30;;;;;;;29.19;42.99;99659.41;4993167;28;20198;-55
2022/05/26 17:40:46;;;;;;;11.88;9.80;;;;;;;29.17;42.86;99669.25;4992599;28;20237;-56
2022/05/26 17:43:15;;;;;;;17.50;10.40;;;;;;;29.18;42.66;99668.28;4992146;28;20257;-61
2022/05/26 17:45:43;;;;;;;12.18;9.40;;;;;;;29.09;43.14;99676.75;4990519;28;20194;-62
2022/05/26 17:48:13;;;;;;;13.88;8.95;;;;;;;29.08;43.49;99672.41;4988599;28;20281;-63